sensor_id;sensor_type;location;lat;lon;timestamp;P1;durP1;ratioP1;P2;durP2;ratioP2
1360;SDS011;674;45.552;-122.600;2023-05-21T00:02:22;6.50;;;2.87;;
1360;SDS011;674;45.552;-122.600;2023-05-21T00:04:51;3.73;;;2.57;;
1360;SDS011;674;45.552;-122.600;2023-05-21T00:07:20;4.00;;;2.17;;
1360;SDS011;674;45.552;-122.600;2023-05-21T00:09:49;4.10;;;2.23;;
1360;SDS011;674;45.552;-122.600;2023-05-21T00:12:19;5.80;;;2.67;;
1360;SDS011;674;45.552;-122.600;2023-05-21T00:14:47;5.60;;;2.43;;
1360;SDS011;674;45.552;-122.600;2023-05-21T00:17:15;3.80;;;2.27;;
1360;SDS011;674;45.552;-122.600;2023-05-21T00:19:44;3.03;;;1.93;;
1360;SDS011;674;45.552;-122.600;2023-05-21T00:22:12;3.37;;;1.80;;
1360;SDS011;674;45.552;-122.600;2023-05-21T00:24:40;3.90;;;2.37;;
1360;SDS011;674;45.552;-122.600;2023-05-21T00:27:12;4.70;;;2.67;;
1360;SDS011;674;45.552;-122.600;2023-05-21T00:29:40;3.63;;;2.23;;
1360;SDS011;674;45.552;-122.600;2023-05-21T00:32:10;4.33;;;2.33;;
1360;SDS011;674;45.552;-122.600;2023-05-21T00:34:39;4.80;;;1.90;;
1360;SDS011;674;45.552;-122.600;2023-05-21T00:37:07;3.30;;;1.60;;
1360;SDS011;674;45.552;-122.600;2023-05-21T00:39:36;3.60;;;2.00;;
1360;SDS011;674;45.552;-122.600;2023-05-21T00:42:04;3.70;;;2.20;;
1360;SDS011;674;45.552;-122.600;2023-05-21T00:44:33;3.00;;;2.30;;
1360;SDS011;674;45.552;-122.600;2023-05-21T00:47:02;4.07;;;2.50;;
1360;SDS011;674;45.552;-122.600;2023-05-21T00:49:32;2.47;;;1.70;;
1360;SDS011;674;45.552;-122.600;2023-05-21T00:52:01;4.30;;;2.00;;
1360;SDS011;674;45.552;-122.600;2023-05-21T00:54:29;3.27;;;2.17;;
1360;SDS011;674;45.552;-122.600;2023-05-21T00:56:58;7.90;;;1.80;;
1360;SDS011;674;45.552;-122.600;2023-05-21T00:59:28;4.33;;;2.00;;
1360;SDS011;674;45.552;-122.600;2023-05-21T01:01:57;3.47;;;1.53;;
1360;SDS011;674;45.552;-122.600;2023-05-21T01:04:30;3.57;;;2.03;;
1360;SDS011;674;45.552;-122.600;2023-05-21T01:06:58;5.90;;;3.47;;
1360;SDS011;674;45.552;-122.600;2023-05-21T01:09:28;4.50;;;2.60;;
1360;SDS011;674;45.552;-122.600;2023-05-21T01:11:56;3.50;;;1.73;;
1360;SDS011;674;45.552;-122.600;2023-05-21T01:14:27;4.37;;;2.17;;
1360;SDS011;674;45.552;-122.600;2023-05-21T01:16:56;3.57;;;1.70;;
1360;SDS011;674;45.552;-122.600;2023-05-21T01:19:28;2.93;;;1.70;;
1360;SDS011;674;45.552;-122.600;2023-05-21T01:22:05;4.60;;;2.10;;
1360;SDS011;674;45.552;-122.600;2023-05-21T01:24:34;5.73;;;1.73;;
1360;SDS011;674;45.552;-122.600;2023-05-21T01:27:02;7.20;;;2.00;;
1360;SDS011;674;45.552;-122.600;2023-05-21T01:29:33;3.00;;;1.60;;
1360;SDS011;674;45.552;-122.600;2023-05-21T01:34:46;2.77;;;1.40;;
1360;SDS011;674;45.552;-122.600;2023-05-21T01:37:33;3.90;;;1.43;;
1360;SDS011;674;45.552;-122.600;2023-05-21T01:40:17;5.60;;;1.80;;
1360;SDS011;674;45.552;-122.600;2023-05-21T01:42:58;2.70;;;1.67;;
1360;SDS011;674;45.552;-122.600;2023-05-21T01:45:27;3.20;;;1.70;;
1360;SDS011;674;45.552;-122.600;2023-05-21T01:47:58;5.43;;;2.03;;
1360;SDS011;674;45.552;-122.600;2023-05-21T01:50:27;6.50;;;1.80;;
1360;SDS011;674;45.552;-122.600;2023-05-21T01:52:58;2.00;;;1.30;;
1360;SDS011;674;45.552;-122.600;2023-05-21T01:55:30;2.13;;;1.30;;
1360;SDS011;674;45.552;-122.600;2023-05-21T01:57:59;4.30;;;1.70;;
1360;SDS011;674;45.552;-122.600;2023-05-21T02:00:28;3.00;;;1.40;;
1360;SDS011;674;45.552;-122.600;2023-05-21T02:02:58;2.30;;;1.30;;
1360;SDS011;674;45.552;-122.600;2023-05-21T02:05:27;3.70;;;1.73;;
1360;SDS011;674;45.552;-122.600;2023-05-21T02:07:55;7.07;;;1.30;;
1360;SDS011;674;45.552;-122.600;2023-05-21T02:10:26;3.13;;;1.30;;
1360;SDS011;674;45.552;-122.600;2023-05-21T02:12:54;3.47;;;1.80;;
1360;SDS011;674;45.552;-122.600;2023-05-21T02:15:22;5.10;;;1.53;;
1360;SDS011;674;45.552;-122.600;2023-05-21T02:17:51;3.30;;;1.77;;
1360;SDS011;674;45.552;-122.600;2023-05-21T02:20:20;3.60;;;1.40;;
1360;SDS011;674;45.552;-122.600;2023-05-21T02:22:49;3.20;;;1.40;;
1360;SDS011;674;45.552;-122.600;2023-05-21T02:25:18;2.40;;;1.20;;
1360;SDS011;674;45.552;-122.600;2023-05-21T02:27:46;2.07;;;1.30;;
1360;SDS011;674;45.552;-122.600;2023-05-21T02:30:19;3.40;;;1.40;;
1360;SDS011;674;45.552;-122.600;2023-05-21T02:32:47;4.00;;;1.60;;
1360;SDS011;674;45.552;-122.600;2023-05-21T02:35:17;2.50;;;1.30;;
1360;SDS011;674;45.552;-122.600;2023-05-21T02:37:45;4.50;;;1.70;;
1360;SDS011;674;45.552;-122.600;2023-05-21T02:40:13;3.13;;;1.60;;
1360;SDS011;674;45.552;-122.600;2023-05-21T02:42:42;3.70;;;1.60;;
1360;SDS011;674;45.552;-122.600;2023-05-21T02:45:11;3.90;;;1.40;;
1360;SDS011;674;45.552;-122.600;2023-05-21T02:47:39;2.60;;;1.40;;
1360;SDS011;674;45.552;-122.600;2023-05-21T02:50:08;2.27;;;1.30;;
1360;SDS011;674;45.552;-122.600;2023-05-21T02:52:37;2.50;;;1.40;;
1360;SDS011;674;45.552;-122.600;2023-05-21T02:55:05;3.87;;;1.30;;
1360;SDS011;674;45.552;-122.600;2023-05-21T02:57:34;2.00;;;1.07;;
1360;SDS011;674;45.552;-122.600;2023-05-21T03:00:03;4.33;;;1.30;;
1360;SDS011;674;45.552;-122.600;2023-05-21T03:02:36;3.00;;;1.40;;
1360;SDS011;674;45.552;-122.600;2023-05-21T03:05:04;2.20;;;1.10;;
1360;SDS011;674;45.552;-122.600;2023-05-21T03:07:33;2.77;;;1.40;;
1360;SDS011;674;45.552;-122.600;2023-05-21T03:10:02;4.13;;;1.63;;
1360;SDS011;674;45.552;-122.600;2023-05-21T03:12:31;5.87;;;1.33;;
1360;SDS011;674;45.552;-122.600;2023-05-21T03:14:59;3.50;;;1.40;;
1360;SDS011;674;45.552;-122.600;2023-05-21T03:17:28;2.40;;;1.63;;
1360;SDS011;674;45.552;-122.600;2023-05-21T03:19:56;4.30;;;1.67;;
1360;SDS011;674;45.552;-122.600;2023-05-21T03:22:24;2.20;;;1.40;;
1360;SDS011;674;45.552;-122.600;2023-05-21T03:24:53;2.80;;;1.40;;
1360;SDS011;674;45.552;-122.600;2023-05-21T03:27:22;3.63;;;2.03;;
1360;SDS011;674;45.552;-122.600;2023-05-21T03:29:50;2.33;;;1.50;;
1360;SDS011;674;45.552;-122.600;2023-05-21T03:32:21;3.07;;;1.60;;
1360;SDS011;674;45.552;-122.600;2023-05-21T03:34:49;4.00;;;1.93;;
1360;SDS011;674;45.552;-122.600;2023-05-21T03:37:18;3.67;;;1.77;;
1360;SDS011;674;45.552;-122.600;2023-05-21T03:39:46;3.30;;;1.63;;
1360;SDS011;674;45.552;-122.600;2023-05-21T03:42:14;3.13;;;1.70;;
1360;SDS011;674;45.552;-122.600;2023-05-21T03:44:43;6.53;;;1.50;;
1360;SDS011;674;45.552;-122.600;2023-05-21T03:47:12;3.03;;;1.30;;
1360;SDS011;674;45.552;-122.600;2023-05-21T03:49:40;2.50;;;1.40;;
1360;SDS011;674;45.552;-122.600;2023-05-21T03:52:09;4.03;;;1.37;;
1360;SDS011;674;45.552;-122.600;2023-05-21T03:54:37;2.50;;;1.40;;
1360;SDS011;674;45.552;-122.600;2023-05-21T03:57:05;3.53;;;1.30;;
1360;SDS011;674;45.552;-122.600;2023-05-21T03:59:34;3.63;;;1.30;;
1360;SDS011;674;45.552;-122.600;2023-05-21T04:02:02;2.73;;;1.47;;
1360;SDS011;674;45.552;-122.600;2023-05-21T04:04:31;2.23;;;1.40;;
1360;SDS011;674;45.552;-122.600;2023-05-21T04:07:00;2.10;;;1.40;;
1360;SDS011;674;45.552;-122.600;2023-05-21T04:09:30;3.80;;;1.40;;
1360;SDS011;674;45.552;-122.600;2023-05-21T04:12:01;4.43;;;1.30;;
1360;SDS011;674;45.552;-122.600;2023-05-21T04:14:30;2.70;;;1.30;;
1360;SDS011;674;45.552;-122.600;2023-05-21T04:16:59;2.10;;;1.10;;
1360;SDS011;674;45.552;-122.600;2023-05-21T04:19:32;4.10;;;1.37;;
1360;SDS011;674;45.552;-122.600;2023-05-21T04:22:01;2.93;;;1.50;;
1360;SDS011;674;45.552;-122.600;2023-05-21T04:24:29;3.27;;;1.73;;
1360;SDS011;674;45.552;-122.600;2023-05-21T04:26:57;3.40;;;1.60;;
1360;SDS011;674;45.552;-122.600;2023-05-21T04:29:27;2.73;;;1.80;;
1360;SDS011;674;45.552;-122.600;2023-05-21T04:31:56;3.70;;;2.03;;
1360;SDS011;674;45.552;-122.600;2023-05-21T04:34:24;4.43;;;1.90;;
1360;SDS011;674;45.552;-122.600;2023-05-21T04:36:53;2.87;;;1.70;;
1360;SDS011;674;45.552;-122.600;2023-05-21T04:39:21;3.40;;;1.67;;
1360;SDS011;674;45.552;-122.600;2023-05-21T04:41:49;4.30;;;1.60;;
1360;SDS011;674;45.552;-122.600;2023-05-21T04:44:21;3.83;;;1.70;;
1360;SDS011;674;45.552;-122.600;2023-05-21T04:46:49;3.00;;;1.80;;
1360;SDS011;674;45.552;-122.600;2023-05-21T04:49:18;3.47;;;2.00;;
1360;SDS011;674;45.552;-122.600;2023-05-21T04:51:50;2.27;;;1.40;;
1360;SDS011;674;45.552;-122.600;2023-05-21T04:54:18;4.80;;;1.83;;
1360;SDS011;674;45.552;-122.600;2023-05-21T04:56:47;4.97;;;3.80;;
1360;SDS011;674;45.552;-122.600;2023-05-21T04:59:15;2.70;;;1.77;;
1360;SDS011;674;45.552;-122.600;2023-05-21T05:01:44;3.27;;;1.77;;
1360;SDS011;674;45.552;-122.600;2023-05-21T05:04:13;3.57;;;1.90;;
1360;SDS011;674;45.552;-122.600;2023-05-21T05:06:41;3.80;;;1.60;;
1360;SDS011;674;45.552;-122.600;2023-05-21T05:09:10;3.10;;;1.87;;
1360;SDS011;674;45.552;-122.600;2023-05-21T05:11:38;3.83;;;2.03;;
1360;SDS011;674;45.552;-122.600;2023-05-21T05:14:06;3.73;;;1.60;;
1360;SDS011;674;45.552;-122.600;2023-05-21T05:16:35;2.90;;;1.80;;
1360;SDS011;674;45.552;-122.600;2023-05-21T05:19:03;3.87;;;1.70;;
1360;SDS011;674;45.552;-122.600;2023-05-21T05:21:32;5.53;;;2.07;;
1360;SDS011;674;45.552;-122.600;2023-05-21T05:24:00;4.50;;;1.73;;
1360;SDS011;674;45.552;-122.600;2023-05-21T05:26:29;3.10;;;1.40;;
1360;SDS011;674;45.552;-122.600;2023-05-21T05:28:57;3.20;;;1.70;;
1360;SDS011;674;45.552;-122.600;2023-05-21T05:31:25;3.07;;;1.63;;
1360;SDS011;674;45.552;-122.600;2023-05-21T05:33:54;5.40;;;1.90;;
1360;SDS011;674;45.552;-122.600;2023-05-21T05:36:22;3.27;;;1.60;;
1360;SDS011;674;45.552;-122.600;2023-05-21T05:38:51;2.80;;;1.40;;
1360;SDS011;674;45.552;-122.600;2023-05-21T05:41:19;2.60;;;1.67;;
1360;SDS011;674;45.552;-122.600;2023-05-21T05:43:47;2.83;;;1.70;;
1360;SDS011;674;45.552;-122.600;2023-05-21T05:46:16;5.60;;;1.93;;
1360;SDS011;674;45.552;-122.600;2023-05-21T05:48:44;3.27;;;1.77;;
1360;SDS011;674;45.552;-122.600;2023-05-21T05:51:13;7.33;;;2.10;;
1360;SDS011;674;45.552;-122.600;2023-05-21T05:53:43;3.33;;;1.90;;
1360;SDS011;674;45.552;-122.600;2023-05-21T05:56:11;2.93;;;1.80;;
1360;SDS011;674;45.552;-122.600;2023-05-21T05:58:40;3.17;;;1.70;;
1360;SDS011;674;45.552;-122.600;2023-05-21T06:01:08;3.30;;;1.67;;
1360;SDS011;674;45.552;-122.600;2023-05-21T06:03:37;3.30;;;1.70;;
1360;SDS011;674;45.552;-122.600;2023-05-21T06:06:06;3.10;;;1.60;;
1360;SDS011;674;45.552;-122.600;2023-05-21T06:08:35;3.03;;;1.80;;
1360;SDS011;674;45.552;-122.600;2023-05-21T06:11:04;3.70;;;1.83;;
1360;SDS011;674;45.552;-122.600;2023-05-21T06:13:32;2.63;;;1.30;;
1360;SDS011;674;45.552;-122.600;2023-05-21T06:16:00;4.17;;;1.73;;
1360;SDS011;674;45.552;-122.600;2023-05-21T06:18:29;3.03;;;1.97;;
1360;SDS011;674;45.552;-122.600;2023-05-21T06:20:58;3.03;;;1.53;;
1360;SDS011;674;45.552;-122.600;2023-05-21T06:23:26;2.77;;;1.70;;
1360;SDS011;674;45.552;-122.600;2023-05-21T06:25:55;5.20;;;1.70;;
1360;SDS011;674;45.552;-122.600;2023-05-21T06:28:23;3.57;;;1.90;;
1360;SDS011;674;45.552;-122.600;2023-05-21T06:30:52;3.73;;;1.87;;
1360;SDS011;674;45.552;-122.600;2023-05-21T06:33:20;7.20;;;1.63;;
1360;SDS011;674;45.552;-122.600;2023-05-21T06:35:49;5.90;;;2.10;;
1360;SDS011;674;45.552;-122.600;2023-05-21T06:38:18;3.90;;;1.60;;
1360;SDS011;674;45.552;-122.600;2023-05-21T06:40:46;2.93;;;1.60;;
1360;SDS011;674;45.552;-122.600;2023-05-21T06:43:15;2.50;;;1.77;;
1360;SDS011;674;45.552;-122.600;2023-05-21T06:45:44;2.87;;;1.80;;
1360;SDS011;674;45.552;-122.600;2023-05-21T06:48:12;2.60;;;1.70;;
1360;SDS011;674;45.552;-122.600;2023-05-21T06:50:43;3.30;;;1.70;;
1360;SDS011;674;45.552;-122.600;2023-05-21T06:53:11;3.10;;;1.90;;
1360;SDS011;674;45.552;-122.600;2023-05-21T06:55:42;2.80;;;1.70;;
1360;SDS011;674;45.552;-122.600;2023-05-21T06:58:11;3.73;;;1.83;;
1360;SDS011;674;45.552;-122.600;2023-05-21T07:00:39;2.90;;;1.67;;
1360;SDS011;674;45.552;-122.600;2023-05-21T07:03:07;2.20;;;1.40;;
1360;SDS011;674;45.552;-122.600;2023-05-21T07:05:36;3.63;;;1.57;;
1360;SDS011;674;45.552;-122.600;2023-05-21T07:08:05;3.00;;;2.10;;
1360;SDS011;674;45.552;-122.600;2023-05-21T07:10:34;2.60;;;1.70;;
1360;SDS011;674;45.552;-122.600;2023-05-21T07:13:03;2.50;;;1.70;;
1360;SDS011;674;45.552;-122.600;2023-05-21T07:15:31;2.70;;;1.90;;
1360;SDS011;674;45.552;-122.600;2023-05-21T07:18:00;3.53;;;1.80;;
1360;SDS011;674;45.552;-122.600;2023-05-21T07:20:29;3.40;;;2.10;;
1360;SDS011;674;45.552;-122.600;2023-05-21T07:22:58;2.57;;;1.53;;
1360;SDS011;674;45.552;-122.600;2023-05-21T07:25:26;2.63;;;1.80;;
1360;SDS011;674;45.552;-122.600;2023-05-21T07:27:54;3.37;;;2.07;;
1360;SDS011;674;45.552;-122.600;2023-05-21T07:30:23;2.70;;;1.93;;
1360;SDS011;674;45.552;-122.600;2023-05-21T07:32:51;5.97;;;1.90;;
1360;SDS011;674;45.552;-122.600;2023-05-21T07:35:20;2.97;;;1.80;;
1360;SDS011;674;45.552;-122.600;2023-05-21T07:37:48;3.90;;;1.97;;
1360;SDS011;674;45.552;-122.600;2023-05-21T07:40:17;4.37;;;2.10;;
1360;SDS011;674;45.552;-122.600;2023-05-21T07:42:45;4.10;;;2.00;;
1360;SDS011;674;45.552;-122.600;2023-05-21T07:45:14;4.00;;;2.00;;
1360;SDS011;674;45.552;-122.600;2023-05-21T07:47:43;5.83;;;1.87;;
1360;SDS011;674;45.552;-122.600;2023-05-21T07:50:13;2.67;;;1.80;;
1360;SDS011;674;45.552;-122.600;2023-05-21T07:52:41;3.10;;;1.80;;
1360;SDS011;674;45.552;-122.600;2023-05-21T07:55:10;2.63;;;1.97;;
1360;SDS011;674;45.552;-122.600;2023-05-21T07:57:38;4.00;;;1.70;;
1360;SDS011;674;45.552;-122.600;2023-05-21T08:00:06;4.57;;;2.30;;
1360;SDS011;674;45.552;-122.600;2023-05-21T08:02:36;3.07;;;1.77;;
1360;SDS011;674;45.552;-122.600;2023-05-21T08:05:05;2.90;;;1.70;;
1360;SDS011;674;45.552;-122.600;2023-05-21T08:07:33;2.60;;;1.60;;
1360;SDS011;674;45.552;-122.600;2023-05-21T08:10:02;2.87;;;1.90;;
1360;SDS011;674;45.552;-122.600;2023-05-21T08:12:32;6.60;;;1.97;;
1360;SDS011;674;45.552;-122.600;2023-05-21T08:15:00;3.67;;;2.07;;
1360;SDS011;674;45.552;-122.600;2023-05-21T08:17:29;2.80;;;1.47;;
1360;SDS011;674;45.552;-122.600;2023-05-21T08:19:57;3.13;;;1.90;;
1360;SDS011;674;45.552;-122.600;2023-05-21T08:22:25;6.57;;;2.30;;
1360;SDS011;674;45.552;-122.600;2023-05-21T08:24:54;3.23;;;1.80;;
1360;SDS011;674;45.552;-122.600;2023-05-21T08:27:22;2.50;;;1.50;;
1360;SDS011;674;45.552;-122.600;2023-05-21T08:29:51;8.27;;;1.80;;
1360;SDS011;674;45.552;-122.600;2023-05-21T08:32:19;3.47;;;1.80;;
1360;SDS011;674;45.552;-122.600;2023-05-21T08:34:48;3.07;;;1.60;;
1360;SDS011;674;45.552;-122.600;2023-05-21T08:37:16;3.00;;;1.73;;
1360;SDS011;674;45.552;-122.600;2023-05-21T08:39:44;3.10;;;1.83;;
1360;SDS011;674;45.552;-122.600;2023-05-21T08:45:06;3.97;;;2.37;;
1360;SDS011;674;45.552;-122.600;2023-05-21T08:47:35;3.30;;;1.73;;
1360;SDS011;674;45.552;-122.600;2023-05-21T08:50:04;2.70;;;1.53;;
1360;SDS011;674;45.552;-122.600;2023-05-21T08:52:36;3.60;;;1.90;;
1360;SDS011;674;45.552;-122.600;2023-05-21T08:55:04;3.10;;;2.10;;
1360;SDS011;674;45.552;-122.600;2023-05-21T08:57:33;4.43;;;1.97;;
1360;SDS011;674;45.552;-122.600;2023-05-21T09:00:02;3.43;;;1.80;;
1360;SDS011;674;45.552;-122.600;2023-05-21T09:02:34;2.90;;;1.80;;
1360;SDS011;674;45.552;-122.600;2023-05-21T09:05:07;3.60;;;2.00;;
1360;SDS011;674;45.552;-122.600;2023-05-21T09:07:46;4.10;;;2.13;;
1360;SDS011;674;45.552;-122.600;2023-05-21T09:10:22;4.63;;;2.10;;
1360;SDS011;674;45.552;-122.600;2023-05-21T09:12:54;3.80;;;2.00;;
1360;SDS011;674;45.552;-122.600;2023-05-21T09:15:22;3.93;;;2.20;;
1360;SDS011;674;45.552;-122.600;2023-05-21T09:17:51;3.33;;;1.90;;
1360;SDS011;674;45.552;-122.600;2023-05-21T09:20:23;3.60;;;1.93;;
1360;SDS011;674;45.552;-122.600;2023-05-21T09:22:53;4.20;;;1.90;;
1360;SDS011;674;45.552;-122.600;2023-05-21T09:25:22;3.43;;;2.20;;
1360;SDS011;674;45.552;-122.600;2023-05-21T09:28:00;3.97;;;2.30;;
1360;SDS011;674;45.552;-122.600;2023-05-21T09:30:28;3.77;;;2.30;;
1360;SDS011;674;45.552;-122.600;2023-05-21T09:33:01;3.17;;;2.10;;
1360;SDS011;674;45.552;-122.600;2023-05-21T09:35:30;3.47;;;1.67;;
1360;SDS011;674;45.552;-122.600;2023-05-21T09:38:01;2.90;;;2.30;;
1360;SDS011;674;45.552;-122.600;2023-05-21T09:40:35;3.03;;;1.90;;
1360;SDS011;674;45.552;-122.600;2023-05-21T09:43:13;4.50;;;2.07;;
1360;SDS011;674;45.552;-122.600;2023-05-21T09:45:52;4.67;;;1.87;;
1360;SDS011;674;45.552;-122.600;2023-05-21T09:48:35;4.77;;;2.13;;
1360;SDS011;674;45.552;-122.600;2023-05-21T09:51:08;2.97;;;2.27;;
1360;SDS011;674;45.552;-122.600;2023-05-21T09:53:48;6.10;;;2.43;;
1360;SDS011;674;45.552;-122.600;2023-05-21T09:56:25;5.83;;;2.57;;
1360;SDS011;674;45.552;-122.600;2023-05-21T09:58:58;3.60;;;2.23;;
1360;SDS011;674;45.552;-122.600;2023-05-21T10:01:30;4.57;;;2.07;;
1360;SDS011;674;45.552;-122.600;2023-05-21T10:04:01;3.10;;;2.40;;
1360;SDS011;674;45.552;-122.600;2023-05-21T10:06:33;4.40;;;2.23;;
1360;SDS011;674;45.552;-122.600;2023-05-21T10:09:08;6.33;;;2.60;;
1360;SDS011;674;45.552;-122.600;2023-05-21T10:11:37;4.23;;;2.50;;
1360;SDS011;674;45.552;-122.600;2023-05-21T10:14:18;4.40;;;2.90;;
1360;SDS011;674;45.552;-122.600;2023-05-21T10:16:48;3.43;;;2.50;;
1360;SDS011;674;45.552;-122.600;2023-05-21T10:19:19;3.20;;;2.00;;
1360;SDS011;674;45.552;-122.600;2023-05-21T10:21:50;4.53;;;2.13;;
1360;SDS011;674;45.552;-122.600;2023-05-21T10:24:20;3.43;;;2.60;;
1360;SDS011;674;45.552;-122.600;2023-05-21T10:26:50;4.80;;;2.30;;
1360;SDS011;674;45.552;-122.600;2023-05-21T10:29:19;3.30;;;2.50;;
1360;SDS011;674;45.552;-122.600;2023-05-21T10:31:49;4.37;;;2.53;;
1360;SDS011;674;45.552;-122.600;2023-05-21T10:34:19;3.90;;;2.47;;
1360;SDS011;674;45.552;-122.600;2023-05-21T10:36:51;5.53;;;2.77;;
1360;SDS011;674;45.552;-122.600;2023-05-21T10:39:22;4.07;;;2.50;;
1360;SDS011;674;45.552;-122.600;2023-05-21T10:41:57;4.07;;;2.13;;
1360;SDS011;674;45.552;-122.600;2023-05-21T10:44:33;3.37;;;2.30;;
1360;SDS011;674;45.552;-122.600;2023-05-21T10:56:24;5.20;;;2.83;;
1360;SDS011;674;45.552;-122.600;2023-05-21T10:59:31;3.43;;;2.33;;
1360;SDS011;674;45.552;-122.600;2023-05-21T11:02:04;3.57;;;2.50;;
1360;SDS011;674;45.552;-122.600;2023-05-21T11:04:33;4.23;;;2.33;;
1360;SDS011;674;45.552;-122.600;2023-05-21T11:07:05;3.33;;;2.30;;
1360;SDS011;674;45.552;-122.600;2023-05-21T11:09:34;4.27;;;2.70;;
1360;SDS011;674;45.552;-122.600;2023-05-21T11:12:04;3.57;;;2.17;;
1360;SDS011;674;45.552;-122.600;2023-05-21T11:14:36;3.40;;;2.47;;
1360;SDS011;674;45.552;-122.600;2023-05-21T11:19:40;3.67;;;2.30;;
1360;SDS011;674;45.552;-122.600;2023-05-21T11:24:49;3.57;;;2.47;;
1360;SDS011;674;45.552;-122.600;2023-05-21T11:30:09;3.73;;;1.90;;
1360;SDS011;674;45.552;-122.600;2023-05-21T11:38:20;3.57;;;1.90;;
1360;SDS011;674;45.552;-122.600;2023-05-21T11:40:49;2.73;;;1.70;;
1360;SDS011;674;45.552;-122.600;2023-05-21T11:43:21;2.93;;;1.97;;
1360;SDS011;674;45.552;-122.600;2023-05-21T11:45:51;2.57;;;1.57;;
1360;SDS011;674;45.552;-122.600;2023-05-21T11:48:25;4.10;;;2.00;;
1360;SDS011;674;45.552;-122.600;2023-05-21T11:50:57;4.60;;;2.07;;
1360;SDS011;674;45.552;-122.600;2023-05-21T11:53:28;2.83;;;1.90;;
1360;SDS011;674;45.552;-122.600;2023-05-21T11:55:57;3.47;;;2.40;;
1360;SDS011;674;45.552;-122.600;2023-05-21T11:58:29;3.40;;;2.40;;
1360;SDS011;674;45.552;-122.600;2023-05-21T12:00:58;3.43;;;2.10;;
1360;SDS011;674;45.552;-122.600;2023-05-21T12:03:27;4.50;;;2.07;;
1360;SDS011;674;45.552;-122.600;2023-05-21T12:06:03;4.10;;;2.03;;
1360;SDS011;674;45.552;-122.600;2023-05-21T12:08:32;3.23;;;2.13;;
1360;SDS011;674;45.552;-122.600;2023-05-21T12:11:02;3.20;;;2.60;;
1360;SDS011;674;45.552;-122.600;2023-05-21T12:13:30;3.83;;;2.30;;
1360;SDS011;674;45.552;-122.600;2023-05-21T12:15:59;3.70;;;2.80;;
1360;SDS011;674;45.552;-122.600;2023-05-21T12:18:32;4.27;;;2.53;;
1360;SDS011;674;45.552;-122.600;2023-05-21T12:21:00;4.00;;;2.97;;
1360;SDS011;674;45.552;-122.600;2023-05-21T12:23:29;3.97;;;2.60;;
1360;SDS011;674;45.552;-122.600;2023-05-21T12:25:57;3.23;;;2.70;;
1360;SDS011;674;45.552;-122.600;2023-05-21T12:28:26;3.33;;;2.60;;
1360;SDS011;674;45.552;-122.600;2023-05-21T12:30:55;4.30;;;3.10;;
1360;SDS011;674;45.552;-122.600;2023-05-21T12:33:23;5.00;;;2.70;;
1360;SDS011;674;45.552;-122.600;2023-05-21T12:35:52;4.27;;;2.83;;
1360;SDS011;674;45.552;-122.600;2023-05-21T12:38:20;4.33;;;2.90;;
1360;SDS011;674;45.552;-122.600;2023-05-21T12:40:49;4.17;;;2.63;;
1360;SDS011;674;45.552;-122.600;2023-05-21T12:43:17;4.10;;;2.67;;
1360;SDS011;674;45.552;-122.600;2023-05-21T12:45:46;3.67;;;2.37;;
1360;SDS011;674;45.552;-122.600;2023-05-21T12:48:15;3.50;;;2.80;;
1360;SDS011;674;45.552;-122.600;2023-05-21T12:50:43;3.53;;;2.70;;
1360;SDS011;674;45.552;-122.600;2023-05-21T12:53:11;3.40;;;2.53;;
1360;SDS011;674;45.552;-122.600;2023-05-21T12:55:40;4.60;;;3.00;;
1360;SDS011;674;45.552;-122.600;2023-05-21T12:58:11;3.97;;;2.57;;
1360;SDS011;674;45.552;-122.600;2023-05-21T13:00:40;4.77;;;3.10;;
1360;SDS011;674;45.552;-122.600;2023-05-21T13:03:10;3.83;;;2.20;;
1360;SDS011;674;45.552;-122.600;2023-05-21T13:05:39;4.67;;;2.90;;
1360;SDS011;674;45.552;-122.600;2023-05-21T13:08:08;3.80;;;2.57;;
1360;SDS011;674;45.552;-122.600;2023-05-21T13:10:37;4.73;;;2.53;;
1360;SDS011;674;45.552;-122.600;2023-05-21T13:13:05;6.17;;;3.00;;
1360;SDS011;674;45.552;-122.600;2023-05-21T13:15:34;3.33;;;2.80;;
1360;SDS011;674;45.552;-122.600;2023-05-21T13:18:02;6.53;;;2.50;;
1360;SDS011;674;45.552;-122.600;2023-05-21T13:20:31;3.87;;;2.70;;
1360;SDS011;674;45.552;-122.600;2023-05-21T13:22:59;4.00;;;2.63;;
1360;SDS011;674;45.552;-122.600;2023-05-21T13:25:31;3.40;;;2.60;;
1360;SDS011;674;45.552;-122.600;2023-05-21T13:28:03;4.20;;;2.83;;
1360;SDS011;674;45.552;-122.600;2023-05-21T13:30:32;4.50;;;3.33;;
1360;SDS011;674;45.552;-122.600;2023-05-21T13:33:01;3.93;;;2.50;;
1360;SDS011;674;45.552;-122.600;2023-05-21T13:35:29;3.53;;;3.00;;
1360;SDS011;674;45.552;-122.600;2023-05-21T13:37:58;3.90;;;2.77;;
1360;SDS011;674;45.552;-122.600;2023-05-21T13:40:26;5.37;;;2.33;;
1360;SDS011;674;45.552;-122.600;2023-05-21T13:42:55;4.20;;;2.10;;
1360;SDS011;674;45.552;-122.600;2023-05-21T13:45:23;2.30;;;1.50;;
1360;SDS011;674;45.552;-122.600;2023-05-21T13:47:55;3.47;;;1.80;;
1360;SDS011;674;45.552;-122.600;2023-05-21T13:50:23;2.60;;;1.40;;
1360;SDS011;674;45.552;-122.600;2023-05-21T13:52:52;2.10;;;1.10;;
1360;SDS011;674;45.552;-122.600;2023-05-21T13:55:20;2.00;;;0.70;;
1360;SDS011;674;45.552;-122.600;2023-05-21T13:57:49;2.00;;;0.70;;
1360;SDS011;674;45.552;-122.600;2023-05-21T14:00:18;2.50;;;0.83;;
1360;SDS011;674;45.552;-122.600;2023-05-21T14:02:46;2.23;;;0.80;;
1360;SDS011;674;45.552;-122.600;2023-05-21T14:05:16;2.07;;;0.70;;
1360;SDS011;674;45.552;-122.600;2023-05-21T14:07:45;1.80;;;0.80;;
1360;SDS011;674;45.552;-122.600;2023-05-21T14:10:14;2.00;;;0.63;;
1360;SDS011;674;45.552;-122.600;2023-05-21T14:12:43;1.70;;;0.60;;
1360;SDS011;674;45.552;-122.600;2023-05-21T14:15:12;2.10;;;0.70;;
1360;SDS011;674;45.552;-122.600;2023-05-21T14:17:41;2.30;;;0.70;;
1360;SDS011;674;45.552;-122.600;2023-05-21T14:20:09;2.20;;;0.70;;
1360;SDS011;674;45.552;-122.600;2023-05-21T14:22:38;1.70;;;0.53;;
1360;SDS011;674;45.552;-122.600;2023-05-21T14:25:07;2.73;;;0.70;;
1360;SDS011;674;45.552;-122.600;2023-05-21T14:27:35;1.90;;;0.80;;
1360;SDS011;674;45.552;-122.600;2023-05-21T14:30:04;2.20;;;0.53;;
1360;SDS011;674;45.552;-122.600;2023-05-21T14:32:33;2.00;;;0.70;;
1360;SDS011;674;45.552;-122.600;2023-05-21T14:35:02;1.60;;;0.60;;
1360;SDS011;674;45.552;-122.600;2023-05-21T14:37:31;2.00;;;0.60;;
1360;SDS011;674;45.552;-122.600;2023-05-21T14:39:59;1.80;;;0.60;;
1360;SDS011;674;45.552;-122.600;2023-05-21T14:42:27;1.70;;;0.70;;
1360;SDS011;674;45.552;-122.600;2023-05-21T14:44:57;1.70;;;0.80;;
1360;SDS011;674;45.552;-122.600;2023-05-21T14:47:43;2.00;;;1.20;;
1360;SDS011;674;45.552;-122.600;2023-05-21T14:50:14;1.87;;;0.80;;
1360;SDS011;674;45.552;-122.600;2023-05-21T14:52:43;2.33;;;0.83;;
1360;SDS011;674;45.552;-122.600;2023-05-21T14:55:11;2.63;;;1.20;;
1360;SDS011;674;45.552;-122.600;2023-05-21T14:57:43;2.00;;;0.90;;
1360;SDS011;674;45.552;-122.600;2023-05-21T15:00:14;2.07;;;1.00;;
1360;SDS011;674;45.552;-122.600;2023-05-21T15:02:42;4.43;;;0.90;;
1360;SDS011;674;45.552;-122.600;2023-05-21T15:05:11;1.63;;;0.60;;
1360;SDS011;674;45.552;-122.600;2023-05-21T15:07:39;1.80;;;0.60;;
1360;SDS011;674;45.552;-122.600;2023-05-21T15:10:08;2.37;;;1.00;;
1360;SDS011;674;45.552;-122.600;2023-05-21T15:12:37;3.03;;;1.00;;
1360;SDS011;674;45.552;-122.600;2023-05-21T15:15:06;1.93;;;0.83;;
1360;SDS011;674;45.552;-122.600;2023-05-21T15:17:35;2.57;;;0.93;;
1360;SDS011;674;45.552;-122.600;2023-05-21T15:20:04;3.27;;;1.00;;
1360;SDS011;674;45.552;-122.600;2023-05-21T15:22:33;3.83;;;1.13;;
1360;SDS011;674;45.552;-122.600;2023-05-21T15:25:02;1.70;;;0.80;;
1360;SDS011;674;45.552;-122.600;2023-05-21T15:27:31;3.60;;;0.80;;
1360;SDS011;674;45.552;-122.600;2023-05-21T15:30:00;3.37;;;1.10;;
1360;SDS011;674;45.552;-122.600;2023-05-21T15:32:29;2.13;;;0.70;;